createdAt,value
2022-10-16T00:01:59.411Z,99299.56
2022-10-16T00:04:26.002Z,99295.22
2022-10-16T00:06:52.682Z,99304.16
2022-10-16T00:09:19.219Z,99290.19
2022-10-16T00:11:45.848Z,99292.81
2022-10-16T00:14:14.835Z,99303.56
2022-10-16T00:16:42.006Z,99302.72
2022-10-16T00:19:08.639Z,99304.53
2022-10-16T00:21:35.419Z,99308.97
2022-10-16T00:24:09.270Z,99304.78
2022-10-16T00:26:37.607Z,99301.19
2022-10-16T00:29:05.268Z,99304.78
2022-10-16T00:31:32.229Z,99296.94
2022-10-16T00:33:59.059Z,99296.13
2022-10-16T00:36:27.071Z,99305.03
2022-10-16T00:41:32.695Z,99298.03
2022-10-16T00:44:05.198Z,99295.66
2022-10-16T00:46:39.701Z,99303.75
2022-10-16T00:49:10.013Z,99308.06
2022-10-16T00:51:42.731Z,99301.34
2022-10-16T00:54:23.563Z,99309.41
2022-10-16T00:56:51.302Z,99310.97
2022-10-16T00:59:26.044Z,99298.09
2022-10-16T01:01:54.113Z,99301.44
2022-10-16T01:04:20.900Z,99296.28
2022-10-16T01:06:58.660Z,99301.81
2022-10-16T01:09:29.088Z,99296.53
2022-10-16T01:12:15.819Z,99290.63
2022-10-16T01:14:58.097Z,99294.72
2022-10-16T01:17:41.576Z,99291.59
2022-10-16T01:20:31.567Z,99291.72
2022-10-16T01:23:17.298Z,99291.84
2022-10-16T01:26:14.986Z,99303.41
2022-10-16T01:29:09.245Z,99297.41
2022-10-16T01:31:40.662Z,99301.72
2022-10-16T01:34:15.431Z,99293.91
2022-10-16T01:36:57.546Z,99300.28
2022-10-16T01:39:29.731Z,99305.34
2022-10-16T01:42:03.015Z,99301.16
2022-10-16T01:44:33.802Z,99294.13
2022-10-16T01:47:01.955Z,99301.16
2022-10-16T01:49:32.244Z,99301.16
2022-10-16T01:52:03.132Z,99300.41
2022-10-16T01:54:33.129Z,99300.41
2022-10-16T01:57:00.541Z,99299.44
2022-10-16T01:59:31.983Z,99306.69
2022-10-16T02:02:02.379Z,99313.66
2022-10-16T02:04:35.915Z,99300.53
2022-10-16T02:07:02.586Z,99308.13
2022-10-16T02:09:31.351Z,99301.16
2022-10-16T02:12:03.651Z,99301.16
2022-10-16T02:14:30.517Z,99306.16
2022-10-16T02:16:57.080Z,99305.34
2022-10-16T02:19:23.749Z,99307.84
2022-10-16T02:21:55.053Z,99318.44
2022-10-16T02:24:27.656Z,99306.16
2022-10-16T02:27:04.096Z,99302.53
2022-10-16T02:29:31.929Z,99297.00
2022-10-16T02:32:04.325Z,99297.97
2022-10-16T02:34:34.254Z,99297.84
2022-10-16T02:37:04.593Z,99298.69
2022-10-16T02:39:32.035Z,99307.34
2022-10-16T02:41:58.626Z,99303.84
2022-10-16T02:44:25.289Z,99296.75
2022-10-16T02:46:51.962Z,99302.91
2022-10-16T02:49:19.104Z,99297.63
2022-10-16T02:51:45.649Z,99298.44
2022-10-16T02:54:12.157Z,99301.81
2022-10-16T02:56:38.675Z,99304.34
2022-10-16T02:59:05.302Z,99306.06
2022-10-16T03:01:32.191Z,99300.75
2022-10-16T03:03:58.828Z,99308.59
2022-10-16T03:06:25.368Z,99299.66
2022-10-16T03:08:51.925Z,99308.31
2022-10-16T03:11:18.533Z,99310.84
2022-10-16T03:13:45.181Z,99308.06
2022-10-16T03:16:11.839Z,99308.91
2022-10-16T03:18:38.495Z,99303.34
2022-10-16T03:21:06.057Z,99304.19
2022-10-16T03:23:32.715Z,99299.59
2022-10-16T03:26:00.003Z,99300.31
2022-10-16T03:28:26.671Z,99302.00
2022-10-16T03:30:53.230Z,99301.03
2022-10-16T03:33:19.792Z,99302.84
2022-10-16T03:35:55.642Z,99316.91
2022-10-16T03:38:22.788Z,99320.31
2022-10-16T03:40:49.475Z,99320.19
2022-10-16T03:43:16.256Z,99315.69
2022-10-16T03:45:42.876Z,99315.69
2022-10-16T03:48:09.425Z,99323.66
2022-10-16T03:50:35.960Z,99315.69
2022-10-16T03:53:02.541Z,99312.09
2022-10-16T03:55:29.190Z,99310.41
2022-10-16T03:57:55.738Z,99315.69
2022-10-16T04:00:22.333Z,99310.41
2022-10-16T04:02:48.902Z,99312.09
2022-10-16T04:05:15.554Z,99311.38
2022-10-16T04:07:42.115Z,99321.00
2022-10-16T04:10:09.083Z,99321.97
2022-10-16T04:12:35.639Z,99317.66
2022-10-16T04:15:02.293Z,99325.59
2022-10-16T04:17:29.356Z,99334.53
2022-10-16T04:19:56.090Z,99333.69
2022-10-16T04:22:22.691Z,99335.47
2022-10-16T04:24:49.284Z,99338.28
2022-10-16T04:27:15.825Z,99348.88
2022-10-16T04:29:42.352Z,99346.34
2022-10-16T04:32:10.009Z,99355.25
2022-10-16T04:34:36.958Z,99352.59
2022-10-16T04:37:03.510Z,99341.16
2022-10-16T04:39:30.119Z,99342.97
2022-10-16T04:41:56.636Z,99339.50
2022-10-16T04:44:23.203Z,99336.00
2022-10-16T04:46:52.144Z,99354.66
2022-10-16T04:49:18.721Z,99363.47
2022-10-16T04:51:45.214Z,99365.25
2022-10-16T04:54:11.855Z,99357.44
2022-10-16T04:56:44.272Z,99363.72
2022-10-16T04:59:11.023Z,99365.50
2022-10-16T05:01:37.574Z,99363.84
2022-10-16T05:04:04.196Z,99368.31
2022-10-16T05:06:30.808Z,99362.28
2022-10-16T05:08:57.335Z,99356.97
2022-10-16T05:11:23.881Z,99354.31
2022-10-16T05:13:53.540Z,99366.88
2022-10-16T05:16:22.348Z,99376.63
2022-10-16T05:18:52.962Z,99376.72
2022-10-16T05:21:19.977Z,99383.84
2022-10-16T05:23:46.560Z,99383.00
2022-10-16T05:26:13.206Z,99375.28
2022-10-16T05:28:39.881Z,99377.09
2022-10-16T05:31:08.241Z,99381.66
2022-10-16T05:33:35.271Z,99387.81
2022-10-16T05:36:04.125Z,99396.69
2022-10-16T05:38:30.674Z,99398.53
2022-10-16T05:40:57.635Z,99397.66
2022-10-16T05:43:24.179Z,99406.47
2022-10-16T05:45:58.956Z,99402.38
2022-10-16T05:48:25.780Z,99399.50
2022-10-16T05:51:13.457Z,99406.00
2022-10-16T05:53:41.926Z,99409.25
2022-10-16T05:56:11.502Z,99416.34
2022-10-16T05:58:41.364Z,99418.16
2022-10-16T06:01:14.509Z,99422.72
2022-10-16T06:03:41.444Z,99423.47
2022-10-16T06:06:12.349Z,99421.75
2022-10-16T06:08:40.212Z,99430.56
2022-10-16T06:11:09.529Z,99433.44
2022-10-16T06:13:36.157Z,99429.84
2022-10-16T06:16:04.314Z,99438.72
2022-10-16T06:18:31.224Z,99439.72
2022-10-16T06:20:58.857Z,99436.22
2022-10-16T06:23:26.168Z,99440.69
2022-10-16T06:25:52.828Z,99448.75
2022-10-16T06:28:19.458Z,99452.13
2022-10-16T06:30:46.767Z,99456.69
2022-10-16T06:33:13.545Z,99457.53
2022-10-16T06:35:40.157Z,99461.00
2022-10-16T06:38:06.707Z,99460.06
2022-10-16T06:40:33.267Z,99466.19
2022-10-16T06:42:59.803Z,99474.88
2022-10-16T06:45:26.359Z,99474.03
2022-10-16T06:47:52.871Z,99479.31
2022-10-16T06:50:19.453Z,99485.47
2022-10-16T06:52:46.001Z,99487.16
2022-10-16T06:55:12.542Z,99487.97
2022-10-16T06:57:39.071Z,99501.09
2022-10-16T07:00:06.556Z,99501.97
2022-10-16T07:02:33.160Z,99499.19
2022-10-16T07:04:59.770Z,99509.78
2022-10-16T07:07:27.605Z,99522.06
2022-10-16T07:09:54.237Z,99539.66
2022-10-16T07:12:20.822Z,99548.44
2022-10-16T07:14:47.415Z,99552.78
2022-10-16T07:17:14.012Z,99554.47
2022-10-16T07:19:40.569Z,99550.13
2022-10-16T07:22:07.677Z,99549.16
2022-10-16T07:24:34.295Z,99557.97
2022-10-16T07:27:01.079Z,99564.97
2022-10-16T07:29:27.677Z,99560.41
2022-10-16T07:31:54.439Z,99561.22
2022-10-16T07:34:23.155Z,99570.03
2022-10-16T07:36:51.011Z,99571.59
2022-10-16T07:39:18.524Z,99577.66
2022-10-16T07:41:45.206Z,99587.97
2022-10-16T07:44:11.854Z,99589.53
2022-10-16T07:46:38.476Z,99592.81
2022-10-16T07:49:05.125Z,99602.22
2022-10-16T07:51:31.960Z,99601.97
2022-10-16T07:53:58.565Z,99608.81
2022-10-16T07:56:25.227Z,99609.34
2022-10-16T07:58:52.530Z,99615.22
2022-10-16T08:01:20.332Z,99616.69
2022-10-16T08:03:52.145Z,99620.03
2022-10-16T08:06:23.424Z,99619.56
2022-10-16T08:08:53.482Z,99612.09
2022-10-16T08:11:20.047Z,99619.69
2022-10-16T08:13:46.636Z,99616.66
2022-10-16T08:16:13.300Z,99622.44
2022-10-16T08:18:41.187Z,99629.19
2022-10-16T08:21:18.465Z,99636.78
2022-10-16T08:23:50.090Z,99640.63
2022-10-16T08:26:18.082Z,99636.63
2022-10-16T08:28:44.646Z,99641.44
2022-10-16T08:33:47.487Z,99650.09
2022-10-16T08:36:15.431Z,99651.31
2022-10-16T08:38:42.046Z,99648.16
2022-10-16T08:41:14.593Z,99656.72
2022-10-16T08:43:41.088Z,99650.78
2022-10-16T08:46:16.805Z,99652.94
2022-10-16T08:48:50.302Z,99665.84
2022-10-16T08:51:24.945Z,99661.00
2022-10-16T08:54:00.573Z,99665.91
2022-10-16T08:56:27.651Z,99666.97
2022-10-16T08:58:59.661Z,99669.94
2022-10-16T09:01:51.664Z,99674.91
2022-10-16T09:04:46.314Z,99666.53
2022-10-16T09:07:36.699Z,99670.34
2022-10-16T09:10:25.151Z,99665.50
2022-10-16T09:13:16.809Z,99680.09
2022-10-16T09:16:14.056Z,99693.69
2022-10-16T09:18:48.616Z,99686.03
2022-10-16T09:21:26.592Z,99694.47
2022-10-16T09:23:58.128Z,99702.63
2022-10-16T09:28:56.335Z,99715.75
2022-10-16T09:31:24.217Z,99712.44
2022-10-16T09:34:00.670Z,99721.56
2022-10-16T09:36:29.155Z,99720.63
2022-10-16T09:39:07.077Z,99720.13
2022-10-16T09:41:37.558Z,99721.00
2022-10-16T09:44:07.316Z,99719.50
2022-10-16T09:46:37.000Z,99743.88
2022-10-16T09:49:22.545Z,99732.25
2022-10-16T09:51:49.297Z,99735.09
2022-10-16T09:54:21.820Z,99739.59
2022-10-16T09:56:55.415Z,99738.59
2022-10-16T09:59:27.696Z,99740.28
2022-10-16T10:01:56.281Z,99754.16
2022-10-16T10:04:29.513Z,99752.22
2022-10-16T10:06:58.029Z,99745.38
2022-10-16T10:09:38.152Z,99749.72
2022-10-16T10:12:06.543Z,99731.25
2022-10-16T10:14:39.438Z,99740.91
2022-10-16T10:17:05.965Z,99741.09
2022-10-16T10:19:40.934Z,99762.84
2022-10-16T10:22:24.603Z,99758.53
2022-10-16T10:25:14.254Z,99756.56
2022-10-16T10:28:17.737Z,99771.16
2022-10-16T10:31:07.858Z,99782.97
2022-10-16T10:33:53.100Z,99772.28
2022-10-16T10:36:41.926Z,99787.16
2022-10-16T10:39:37.143Z,99787.03
2022-10-16T10:42:22.781Z,99786.03
2022-10-16T10:45:07.983Z,99787.84
2022-10-16T10:47:49.799Z,99785.84
2022-10-16T10:50:44.100Z,99793.72
2022-10-16T10:53:14.755Z,99791.88
2022-10-16T10:56:01.183Z,99789.63
2022-10-16T10:58:53.845Z,99792.09
2022-10-16T11:01:38.759Z,99789.25
2022-10-16T11:04:27.239Z,99783.25
2022-10-16T11:07:01.231Z,99785.19
2022-10-16T11:09:47.896Z,99779.03
2022-10-16T11:12:33.242Z,99778.44
2022-10-16T11:17:36.376Z,99782.03
2022-10-16T11:20:26.948Z,99782.22
2022-10-16T11:22:59.701Z,99789.72
2022-10-16T11:25:31.313Z,99793.81
2022-10-16T11:28:21.320Z,99786.53
2022-10-16T11:31:17.313Z,99795.78
2022-10-16T11:33:52.277Z,99797.25
2022-10-16T11:36:35.864Z,99797.25
2022-10-16T11:39:11.600Z,99791.91
2022-10-16T11:41:52.379Z,99796.47
2022-10-16T11:44:45.804Z,99801.88
2022-10-16T11:50:18.212Z,99810.38
2022-10-16T11:52:54.737Z,99814.25
2022-10-16T11:55:25.685Z,99822.69
2022-10-16T11:58:04.052Z,99823.78
2022-10-16T12:00:48.703Z,99829.69
2022-10-16T12:03:21.126Z,99830.47
2022-10-16T12:06:02.536Z,99828.66
2022-10-16T12:08:29.667Z,99842.19
2022-10-16T12:11:21.103Z,99838.75
2022-10-16T12:13:49.356Z,99828.28
2022-10-16T12:16:15.943Z,99830.53
2022-10-16T12:18:45.509Z,99824.53
2022-10-16T12:21:16.707Z,99824.19
2022-10-16T12:23:56.133Z,99821.03
2022-10-16T12:26:28.782Z,99824.22
2022-10-16T12:28:56.234Z,99824.31
2022-10-16T12:31:24.377Z,99827.41
2022-10-16T12:34:00.472Z,99817.78
2022-10-16T12:36:35.745Z,99826.47
2022-10-16T12:39:03.071Z,99817.03
2022-10-16T12:41:29.535Z,99818.16
2022-10-16T12:43:56.802Z,99818.81
2022-10-16T12:46:36.177Z,99831.13
2022-10-16T12:49:13.527Z,99833.38
2022-10-16T12:51:41.596Z,99837.56
2022-10-16T12:54:08.092Z,99838.63
2022-10-16T12:56:48.270Z,99846.69
2022-10-16T12:59:23.915Z,99840.28
2022-10-16T13:02:02.308Z,99846.25
2022-10-16T13:04:38.308Z,99849.16
2022-10-16T13:07:18.135Z,99837.09
2022-10-16T13:10:02.159Z,99841.66
2022-10-16T13:12:56.831Z,99846.34
2022-10-16T13:15:49.870Z,99851.56
2022-10-16T13:18:35.054Z,99856.84
2022-10-16T13:21:20.329Z,99862.75
2022-10-16T13:23:55.909Z,99862.38
2022-10-16T13:26:42.836Z,99869.31
2022-10-16T13:29:10.261Z,99870.53
2022-10-16T13:31:40.078Z,99874.78
2022-10-16T13:34:12.371Z,99869.75
2022-10-16T13:36:53.627Z,99878.16
2022-10-16T13:39:24.977Z,99878.53
2022-10-16T13:42:16.358Z,99872.78
2022-10-16T13:44:47.051Z,99883.91
2022-10-16T13:47:28.293Z,99879.00
2022-10-16T13:50:10.440Z,99876.81
2022-10-16T13:52:38.197Z,99884.47
2022-10-16T13:55:15.791Z,99885.38
2022-10-16T13:57:43.582Z,99885.31
2022-10-16T14:00:25.319Z,99883.81
2022-10-16T14:02:59.856Z,99886.66
2022-10-16T14:05:26.617Z,99887.97
2022-10-16T14:07:55.371Z,99885.09
2022-10-16T14:10:32.165Z,99882.97
2022-10-16T14:13:09.403Z,99898.44
2022-10-16T14:15:37.585Z,99889.13
2022-10-16T14:18:05.159Z,99896.34
2022-10-16T14:20:34.639Z,99899.50
2022-10-16T14:23:19.670Z,99893.06
2022-10-16T14:25:46.231Z,99910.53
2022-10-16T14:28:23.862Z,99895.50
2022-10-16T14:30:52.102Z,99900.59
2022-10-16T14:33:34.515Z,99902.78
2022-10-16T14:36:12.078Z,99903.25
2022-10-16T14:38:40.389Z,99902.03
2022-10-16T14:41:07.997Z,99901.66
2022-10-16T14:43:40.338Z,99897.69
2022-10-16T14:46:14.623Z,99902.72
2022-10-16T14:48:43.645Z,99907.50
2022-10-16T14:51:15.844Z,99905.69
2022-10-16T14:53:42.639Z,99902.88
2022-10-16T14:56:15.543Z,99904.03
2022-10-16T14:58:42.386Z,99900.03
2022-10-16T15:01:11.988Z,99899.78
2022-10-16T15:03:39.362Z,99907.00
2022-10-16T15:06:11.812Z,99914.38
2022-10-16T15:08:38.726Z,99907.47
2022-10-16T15:11:05.553Z,99909.00
2022-10-16T15:13:32.118Z,99912.34
2022-10-16T15:15:59.226Z,99908.50
2022-10-16T15:18:26.083Z,99910.53
2022-10-16T15:20:53.332Z,99914.56
2022-10-16T15:23:22.501Z,99924.03
2022-10-16T15:25:53.715Z,99922.94
2022-10-16T15:28:21.244Z,99924.06
2022-10-16T15:30:50.867Z,99925.56
2022-10-16T15:33:28.463Z,99933.81
2022-10-16T15:35:55.956Z,99930.59
2022-10-16T15:38:23.786Z,99933.03
2022-10-16T15:40:50.943Z,99924.34
2022-10-16T15:43:17.892Z,99936.91
2022-10-16T15:45:44.517Z,99930.50
2022-10-16T15:48:14.799Z,99929.34
2022-10-16T15:50:42.053Z,99933.41
2022-10-16T15:53:08.614Z,99932.09
2022-10-16T15:55:35.344Z,99929.84
2022-10-16T15:58:01.876Z,99931.69
2022-10-16T16:00:28.469Z,99937.19
2022-10-16T16:02:55.595Z,99934.31
2022-10-16T16:05:23.265Z,99924.03
2022-10-16T16:07:50.571Z,99933.34
2022-10-16T16:10:18.122Z,99936.16
2022-10-16T16:12:50.794Z,99938.59
2022-10-16T16:15:17.802Z,99940.56
2022-10-16T16:17:45.139Z,99945.53
2022-10-16T16:20:12.430Z,99945.09
2022-10-16T16:22:39.054Z,99947.31
2022-10-16T16:25:06.110Z,99943.38
2022-10-16T16:27:34.614Z,99945.44
2022-10-16T16:30:04.636Z,99947.66
2022-10-16T16:32:31.570Z,99932.84
2022-10-16T16:34:58.157Z,99935.72
2022-10-16T16:37:24.979Z,99942.28
2022-10-16T16:39:52.136Z,99942.50
2022-10-16T16:42:18.855Z,99951.41
2022-10-16T16:44:45.419Z,99957.78
2022-10-16T16:47:12.080Z,99956.00
2022-10-16T16:49:38.676Z,99953.38
2022-10-16T16:52:05.246Z,99962.00
2022-10-16T16:54:31.849Z,99960.06
2022-10-16T16:56:58.429Z,99965.84
2022-10-16T16:59:25.032Z,99959.25
2022-10-16T17:01:56.640Z,99975.03
2022-10-16T17:04:23.784Z,99990.66
2022-10-16T17:06:50.354Z,99998.41
2022-10-16T17:09:17.571Z,100000.69
2022-10-16T17:11:45.633Z,100008.25
2022-10-16T17:14:12.702Z,100005.13
2022-10-16T17:16:40.263Z,100012.88
2022-10-16T17:19:09.494Z,100007.13
2022-10-16T17:21:36.460Z,100013.59
2022-10-16T17:24:03.955Z,100004.03
2022-10-16T17:26:31.277Z,100002.38
2022-10-16T17:29:00.759Z,99999.69
2022-10-16T17:31:31.462Z,99989.16
2022-10-16T17:33:59.894Z,100000.69
2022-10-16T17:36:29.739Z,100001.78
2022-10-16T17:39:04.736Z,100000.38
2022-10-16T17:41:32.885Z,100007.84
2022-10-16T17:43:59.643Z,100003.75
2022-10-16T17:46:27.119Z,100009.53
2022-10-16T17:48:55.272Z,100021.34
2022-10-16T17:51:25.598Z,100021.75
2022-10-16T17:53:54.644Z,100033.56
2022-10-16T17:56:22.329Z,100041.81
2022-10-16T17:58:54.180Z,100046.75
2022-10-16T18:01:29.982Z,100040.00
2022-10-16T18:04:02.543Z,100042.22
2022-10-16T18:06:29.624Z,100055.56
2022-10-16T18:08:58.045Z,100060.19
2022-10-16T18:11:24.910Z,100049.50
2022-10-16T18:13:59.111Z,100041.94
2022-10-16T18:16:28.361Z,100048.09
2022-10-16T18:18:57.134Z,100047.28
2022-10-16T18:21:27.486Z,100030.53
2022-10-16T18:23:54.648Z,100028.00
2022-10-16T18:26:21.636Z,100031.94
2022-10-16T18:28:49.132Z,100037.56
2022-10-16T18:31:17.433Z,100021.91
2022-10-16T18:33:50.700Z,100019.50
2022-10-16T18:36:20.765Z,100017.97
2022-10-16T18:38:47.820Z,100016.41
2022-10-16T18:41:14.381Z,100014.03
2022-10-16T18:43:41.018Z,100019.50
2022-10-16T18:46:12.929Z,100016.09
2022-10-16T18:48:40.476Z,100022.44
2022-10-16T18:51:11.352Z,100028.16
2022-10-16T18:53:39.887Z,100032.78
2022-10-16T18:56:07.249Z,100020.56
2022-10-16T18:58:35.468Z,100020.97
2022-10-16T19:01:07.010Z,100035.53
2022-10-16T19:03:34.156Z,100037.38
2022-10-16T19:06:06.985Z,100035.97
2022-10-16T19:08:33.999Z,100024.31
2022-10-16T19:11:12.859Z,100026.53
2022-10-16T19:13:39.707Z,100018.28
2022-10-16T19:16:30.861Z,100016.00
2022-10-16T19:18:59.140Z,100016.00
2022-10-16T19:21:27.646Z,100024.13
2022-10-16T19:23:56.579Z,100028.59
2022-10-16T19:26:23.881Z,100027.91
2022-10-16T19:28:51.841Z,100038.69
2022-10-16T19:31:20.802Z,100032.69
2022-10-16T19:33:47.831Z,100037.16
2022-10-16T19:36:20.249Z,100045.53
2022-10-16T19:38:47.194Z,100041.06
2022-10-16T19:41:18.496Z,100049.44
2022-10-16T19:43:45.864Z,100053.69
2022-10-16T19:46:18.621Z,100051.28
2022-10-16T19:48:45.833Z,100043.97
2022-10-16T19:51:15.136Z,100047.75
2022-10-16T19:53:41.758Z,100042.41
2022-10-16T19:56:17.379Z,100047.06
2022-10-16T19:58:45.235Z,100043.97
2022-10-16T20:01:13.170Z,100039.50
2022-10-16T20:03:40.483Z,100045.53
2022-10-16T20:06:08.518Z,100051.72
2022-10-16T20:08:36.998Z,100055.09
2022-10-16T20:11:05.030Z,100057.63
2022-10-16T20:13:32.497Z,100067.31
2022-10-16T20:15:59.416Z,100093.00
2022-10-16T20:18:26.111Z,100093.81
2022-10-16T20:20:52.730Z,100122.19
2022-10-16T20:23:19.923Z,100124.72
2022-10-16T20:25:47.624Z,100139.75
2022-10-16T20:28:17.578Z,100152.09
2022-10-16T20:30:45.878Z,100148.31
2022-10-16T20:33:13.332Z,100142.88
2022-10-16T20:35:42.388Z,100153.41
2022-10-16T20:38:10.133Z,100155.94
2022-10-16T20:40:38.337Z,100149.63
2022-10-16T20:43:05.696Z,100142.47
2022-10-16T20:45:32.781Z,100126.47
2022-10-16T20:47:59.670Z,100115.09
2022-10-16T20:50:32.636Z,100118.16
2022-10-16T20:52:59.973Z,100110.41
2022-10-16T20:55:27.523Z,100101.97
2022-10-16T20:57:54.332Z,100087.34
2022-10-16T21:00:21.766Z,100084.38
2022-10-16T21:02:52.538Z,100097.38
2022-10-16T21:05:20.015Z,100103.81
2022-10-16T21:07:46.751Z,100097.03
2022-10-16T21:10:13.537Z,100096.31
2022-10-16T21:12:40.168Z,100098.28
2022-10-16T21:15:14.947Z,100094.03
2022-10-16T21:17:42.105Z,100095.97
2022-10-16T21:20:08.918Z,100085.56
2022-10-16T21:22:35.660Z,100095.41
2022-10-16T21:25:02.279Z,100086.78
2022-10-16T21:27:28.890Z,100094.91
2022-10-16T21:29:55.446Z,100098.53
2022-10-16T21:32:22.201Z,100099.63
2022-10-16T21:34:48.774Z,100097.09
2022-10-16T21:37:15.385Z,100090.09
2022-10-16T21:39:41.962Z,100093.72
2022-10-16T21:42:08.586Z,100080.53
2022-10-16T21:44:35.252Z,100077.16
2022-10-16T21:47:01.868Z,100080.78
2022-10-16T21:49:28.418Z,100088.06
2022-10-16T21:51:55.261Z,100085.53
2022-10-16T21:54:24.168Z,100080.44
2022-10-16T21:56:50.927Z,100071.75
2022-10-16T21:59:17.767Z,100073.69
2022-10-16T22:01:44.593Z,100073.94
2022-10-16T22:04:16.522Z,100072.50
2022-10-16T22:06:44.208Z,100077.97
2022-10-16T22:09:14.801Z,100067.56
2022-10-16T22:11:43.788Z,100061.66
2022-10-16T22:14:16.482Z,100064.56
2022-10-16T22:16:44.141Z,100060.22
2022-10-16T22:19:12.182Z,100049.69
2022-10-16T22:21:40.739Z,100032.03
2022-10-16T22:24:08.456Z,100025.16
2022-10-16T22:26:36.267Z,100033.25
2022-10-16T22:29:03.396Z,100028.19
2022-10-16T22:31:30.317Z,100023.09
2022-10-16T22:33:59.127Z,100015.38
2022-10-16T22:36:26.866Z,100012.00
2022-10-16T22:38:54.440Z,100006.09
2022-10-16T22:41:21.910Z,100020.50
2022-10-16T22:43:49.502Z,100019.03
2022-10-16T22:46:27.248Z,100025.72
2022-10-16T22:48:55.965Z,100022.19
2022-10-16T22:51:23.908Z,100026.81
2022-10-16T22:53:50.768Z,100023.56
2022-10-16T22:56:19.751Z,100029.13
2022-10-16T22:58:46.393Z,100028.53
2022-10-16T23:01:20.292Z,100028.16
2022-10-16T23:03:47.049Z,100030.81
2022-10-16T23:06:13.956Z,100032.75
2022-10-16T23:08:40.652Z,100022.97
2022-10-16T23:11:09.335Z,100027.56
2022-10-16T23:13:37.645Z,100026.75
2022-10-16T23:16:05.546Z,100021.41
2022-10-16T23:18:35.770Z,100016.31
2022-10-16T23:21:06.681Z,100010.25
2022-10-16T23:23:35.229Z,100010.25
2022-10-16T23:26:01.857Z,100004.94
2022-10-16T23:28:28.523Z,100001.56
2022-10-16T23:30:55.169Z,100004.22
2022-10-16T23:33:21.706Z,100007.84
2022-10-16T23:35:48.439Z,100001.69
2022-10-16T23:38:15.180Z,100012.19
2022-10-16T23:40:41.737Z,100001.69
2022-10-16T23:43:08.499Z,100008.69
2022-10-16T23:45:35.059Z,100007.84
2022-10-16T23:48:01.664Z,100006.16
2022-10-16T23:50:30.435Z,100006.16
2022-10-16T23:52:57.050Z,100009.78
2022-10-16T23:55:23.681Z,100008.94
2022-10-16T23:57:50.299Z,100019.59
